Time;durP1;ratioP1;P1;durP2;ratioP2;P2;SDS_P1;SDS_P2;PMS_P1;PMS_P2;Temp;Humidity;BMP_temperature;BMP_pressure;BME280_temperature;BME280_humidity;BME280_pressure;Samples;Min_cycle;Max_cycle;Signal;HPM_P1;HPM_P2
2024/04/26 00:01:20;;;;;;;8.38;4.50;;;11.60;62.50;13.50;99938.00;;;;5445455;26;20361;-77
2024/04/26 00:03:50;;;;;;;5.25;4.50;;;11.60;62.50;13.40;99932.00;;;;5445990;26;20300;-76
2024/04/26 00:06:19;;;;;;;6.35;4.07;;;11.60;62.50;13.50;99925.00;;;;5448515;26;21172;-77
2024/04/26 00:08:48;;;;;;;5.78;4.57;;;11.60;62.50;13.50;99932.00;;;;5448282;26;20313;-77
2024/04/26 00:11:18;;;;;;;5.75;4.72;;;11.60;62.50;13.50;99931.00;;;;5425691;26;20241;-77
2024/04/26 00:13:49;;;;;;;6.18;4.43;;;11.60;62.60;13.40;99932.00;;;;5446723;26;20224;-77
2024/04/26 00:16:18;;;;;;;5.20;4.45;;;11.60;62.60;13.50;99931.00;;;;5445667;26;20270;-76
2024/04/26 00:18:46;;;;;;;5.85;4.75;;;11.60;62.60;13.50;99931.00;;;;5437717;26;20317;-77
2024/04/26 00:21:15;;;;;;;6.38;4.40;;;11.60;62.60;13.40;99933.00;;;;5439278;26;20288;-77
2024/04/26 00:23:44;;;;;;;5.43;3.90;;;11.70;62.60;13.40;99927.00;;;;5431243;26;20232;-77
2024/04/26 00:26:13;;;;;;;5.18;4.03;;;11.60;62.50;13.40;99928.00;;;;5413206;26;20228;-77
2024/04/26 00:28:42;;;;;;;5.47;4.45;;;11.60;62.60;13.40;99937.00;;;;5425291;26;21073;-77
2024/04/26 00:31:13;;;;;;;6.72;3.92;;;11.60;62.60;13.40;99940.00;;;;5428428;26;20355;-77
2024/04/26 00:33:42;;;;;;;5.28;3.83;;;11.60;62.60;13.40;99933.00;;;;5418149;26;20224;-76
2024/04/26 00:36:10;;;;;;;5.35;4.13;;;11.60;62.60;13.40;99930.00;;;;5419445;26;20338;-77
2024/04/26 00:38:39;;;;;;;5.13;3.80;;;11.60;62.60;13.40;99927.00;;;;5438551;26;20286;-77
2024/04/26 00:41:08;;;;;;;5.45;4.18;;;11.60;62.50;13.40;99928.00;;;;5437955;26;20852;-77
2024/04/26 00:43:36;;;;;;;6.65;4.88;;;11.60;62.50;13.40;99931.00;;;;5417064;26;20236;-77
2024/04/26 00:46:09;;;;;;;5.53;4.35;;;11.60;62.60;13.40;99935.00;;;;5426259;26;20353;-76
2024/04/26 00:48:40;;;;;;;5.50;4.15;;;11.50;62.50;13.30;99933.00;;;;5447021;26;20575;-77
2024/04/26 00:51:06;;;;;;;4.95;3.90;;;11.50;62.60;13.40;99933.00;;;;5417364;26;20229;-76
2024/04/26 00:53:35;;;;;;;5.57;3.90;;;11.60;62.60;13.40;99926.00;;;;5412454;26;20255;-77
2024/04/26 00:56:05;;;;;;;7.15;3.97;;;11.60;62.60;13.40;99924.00;;;;5410453;26;20309;-77
2024/04/26 00:58:35;;;;;;;10.43;4.95;;;11.60;62.70;13.40;99921.00;;;;5412389;26;20248;-77
2024/04/26 01:01:04;;;;;;;5.50;3.55;;;11.50;62.60;13.40;99916.00;;;;5411198;26;20288;-77
2024/04/26 01:03:32;;;;;;;5.88;4.60;;;11.50;62.60;13.40;99910.00;;;;5411440;26;20279;-77
2024/04/26 01:06:04;;;;;;;4.88;3.97;;;11.50;62.70;13.30;99917.00;;;;5419431;26;20349;-77
2024/04/26 01:08:32;;;;;;;4.25;3.85;;;11.50;62.70;13.40;99910.00;;;;5446045;26;20327;-77
2024/04/26 01:11:01;;;;;;;5.72;4.50;;;11.50;62.60;13.30;99910.00;;;;5443251;26;20639;-77
2024/04/26 01:13:30;;;;;;;5.22;4.47;;;11.50;62.60;13.30;99914.00;;;;5445292;26;20422;-77
2024/04/26 01:15:58;;;;;;;5.07;4.13;;;11.50;62.50;13.30;99910.00;;;;5445882;26;20268;-77
2024/04/26 01:18:27;;;;;;;5.40;3.90;;;11.50;62.50;13.30;99914.00;;;;5439347;26;20237;-77
2024/04/26 01:20:56;;;;;;;6.85;4.20;;;11.50;62.50;13.30;99914.00;;;;5410540;26;20242;-76
2024/04/26 01:23:28;;;;;;;5.47;4.68;;;11.50;62.40;13.20;99921.00;;;;5417948;26;20249;-77
2024/04/26 01:26:02;;;;;;;5.20;4.53;;;11.40;62.50;13.20;99928.00;;;;5424723;26;20295;-77
2024/04/26 01:28:35;;;;;;;5.10;4.32;;;11.40;62.50;13.20;99924.00;;;;5443872;26;20207;-76
2024/04/26 01:31:03;;;;;;;4.22;3.80;;;11.40;62.50;13.30;99924.00;;;;5414483;26;20338;-77
2024/04/26 01:33:32;;;;;;;6.68;4.07;;;11.40;62.50;13.20;99922.00;;;;5440652;26;20303;-77
2024/04/26 01:36:01;;;;;;;5.22;3.88;;;11.50;62.60;13.20;99923.00;;;;5410083;26;20328;-77
2024/04/26 01:38:30;;;;;;;5.00;3.85;;;11.40;62.60;13.20;99929.00;;;;5434767;26;20382;-77
2024/04/26 01:41:01;;;;;;;4.53;3.83;;;11.40;62.70;13.20;99930.00;;;;5408982;26;20241;-77
2024/04/26 01:43:29;;;;;;;6.32;3.97;;;11.40;62.70;13.20;99931.00;;;;5414666;26;20310;-77
2024/04/26 01:45:58;;;;;;;4.13;3.60;;;11.40;62.70;13.20;99937.00;;;;5432613;26;20225;-76
2024/04/26 01:48:24;;;;;;;5.63;4.20;;;11.40;62.60;13.20;99934.00;;;;5413638;26;20288;-76
2024/04/26 01:50:54;;;;;;;3.92;3.50;;;11.40;62.70;13.20;99924.00;;;;5439836;26;20236;-76
2024/04/26 01:53:22;;;;;;;4.10;3.50;;;11.40;62.80;13.20;99933.00;;;;5418907;26;20343;-76
2024/04/26 01:55:48;;;;;;;5.75;4.05;;;11.40;62.80;13.20;99934.00;;;;5448179;26;20469;-76
2024/04/26 01:58:19;;;;;;;4.78;3.90;;;11.30;62.90;13.20;99927.00;;;;5446556;26;20324;-77
2024/04/26 02:00:48;;;;;;;5.22;4.13;;;11.30;62.90;13.20;99937.00;;;;5436561;26;20368;-77
2024/04/26 02:03:14;;;;;;;5.07;4.28;;;11.40;63.00;13.20;99932.00;;;;5426895;26;20346;-76
2024/04/26 02:05:43;;;;;;;5.07;3.92;;;11.40;63.10;13.20;99938.00;;;;5444937;26;20239;-77
2024/04/26 02:08:09;;;;;;;5.38;4.30;;;11.40;63.10;13.20;99931.00;;;;5414381;26;20351;-76
2024/04/26 02:10:37;;;;;;;5.88;4.22;;;11.40;63.80;13.20;99933.00;;;;5419200;26;20583;-75
2024/04/26 02:13:04;;;;;;;7.30;4.53;;;11.40;63.10;13.20;99937.00;;;;5438574;26;20373;-75
2024/04/26 02:15:35;;;;;;;6.55;4.13;;;11.40;63.10;13.20;99938.00;;;;5448678;26;20237;-75
2024/04/26 02:18:01;;;;;;;7.45;3.92;;;11.40;63.10;13.20;99935.00;;;;5444405;26;20278;-75
2024/04/26 02:20:30;;;;;;;6.32;4.50;;;11.40;63.10;13.20;99932.00;;;;5413402;26;20237;-75
2024/04/26 02:22:56;;;;;;;7.25;4.80;;;11.40;63.10;13.20;99936.00;;;;5439110;26;20257;-75
2024/04/26 02:25:25;;;;;;;6.00;4.22;;;11.40;63.30;13.20;99936.00;;;;5449495;26;20235;-75
2024/04/26 02:27:53;;;;;;;5.10;4.35;;;11.40;63.20;13.20;99938.00;;;;5442201;26;20377;-75
2024/04/26 02:30:23;;;;;;;6.22;4.45;;;11.40;63.20;13.20;99935.00;;;;5425580;26;20237;-75
2024/04/26 02:32:55;;;;;;;5.68;4.68;;;11.40;63.20;13.20;99934.00;;;;5435185;26;20340;-75
2024/04/26 02:35:24;;;;;;;6.70;4.40;;;11.40;63.30;13.20;99936.00;;;;5446437;26;20275;-75
2024/04/26 02:37:53;;;;;;;5.63;3.85;;;11.40;63.30;13.20;99939.00;;;;5431408;26;20328;-75
2024/04/26 02:40:21;;;;;;;5.45;4.05;;;11.40;63.30;13.20;99934.00;;;;5442214;26;20276;-75
2024/04/26 02:42:50;;;;;;;5.00;3.58;;;11.40;63.30;13.20;99932.00;;;;5419571;26;20245;-75
2024/04/26 02:45:19;;;;;;;6.45;3.97;;;11.40;63.30;13.20;99933.00;;;;5429238;26;20296;-75
2024/04/26 02:47:48;;;;;;;5.03;3.80;;;11.40;63.30;13.20;99930.00;;;;5434595;26;20240;-75
2024/04/26 02:50:19;;;;;;;5.15;3.85;;;11.40;63.30;13.20;99928.00;;;;5423980;26;20229;-75
2024/04/26 02:52:47;;;;;;;4.90;3.63;;;11.40;63.30;13.20;99932.00;;;;5426883;26;20288;-75
2024/04/26 02:55:16;;;;;;;6.50;3.75;;;11.40;63.30;13.20;99932.00;;;;5434565;26;20671;-75
2024/04/26 02:57:45;;;;;;;4.30;3.58;;;11.40;63.20;13.20;99931.00;;;;5431395;26;20244;-75
2024/04/26 03:00:14;;;;;;;4.53;3.88;;;11.40;63.20;13.20;99933.00;;;;5446967;26;20344;-77
2024/04/26 03:02:42;;;;;;;5.95;3.67;;;11.40;63.20;13.30;99928.00;;;;5442839;26;20281;-76
2024/04/26 03:05:11;;;;;;;4.72;3.40;;;11.40;63.20;13.30;99927.00;;;;5421263;26;20292;-77
2024/04/26 03:07:42;;;;;;;5.25;3.63;;;11.40;63.20;13.20;99928.00;;;;5416263;26;20367;-77
2024/04/26 03:10:11;;;;;;;5.60;3.60;;;11.40;63.20;13.20;99934.00;;;;5413832;26;20237;-77
2024/04/26 03:12:39;;;;;;;4.95;3.75;;;11.40;63.20;13.20;99925.00;;;;5412756;26;20325;-77
2024/04/26 03:15:09;;;;;;;6.28;3.58;;;11.40;63.10;13.20;99917.00;;;;5418019;26;20229;-77
2024/04/26 03:17:41;;;;;;;4.88;3.45;;;11.40;63.10;13.20;99920.00;;;;5428900;26;21044;-77
2024/04/26 03:20:10;;;;;;;4.32;3.15;;;11.40;63.20;13.20;99918.00;;;;5412383;26;20280;-77
2024/04/26 03:22:43;;;;;;;4.50;3.40;;;11.40;63.20;13.20;99922.00;;;;5415887;26;20341;-77
2024/04/26 03:25:12;;;;;;;7.45;4.13;;;11.40;63.30;13.20;99926.00;;;;5424186;26;20332;-77
2024/04/26 03:27:41;;;;;;;4.80;3.58;;;11.40;63.20;13.20;99920.00;;;;5421115;26;20244;-76
2024/04/26 03:30:10;;;;;;;4.57;3.72;;;11.40;63.30;13.20;99921.00;;;;5411654;26;20313;-76
2024/04/26 03:32:38;;;;;;;5.38;3.85;;;11.30;63.20;13.20;99914.00;;;;5422779;26;20233;-76
2024/04/26 03:35:08;;;;;;;5.22;3.75;;;11.40;63.30;13.20;99918.00;;;;5418912;26;20229;-76
2024/04/26 03:37:37;;;;;;;4.38;3.83;;;11.40;63.30;13.20;99912.00;;;;5429493;26;20236;-76
2024/04/26 03:40:12;;;;;;;5.70;4.10;;;11.40;63.30;13.20;99916.00;;;;5424233;26;20237;-76
2024/04/26 03:42:41;;;;;;;5.30;3.22;;;11.30;63.30;13.20;99921.00;;;;5413986;26;20270;-76
2024/04/26 03:45:10;;;;;;;5.03;3.88;;;11.30;63.20;13.20;99910.00;;;;5417375;26;20310;-76
2024/04/26 03:47:39;;;;;;;4.75;3.97;;;11.40;63.30;13.20;99916.00;;;;5431016;26;20333;-77
2024/04/26 03:50:09;;;;;;;4.20;3.33;;;11.30;63.30;13.20;99909.00;;;;5422137;26;20240;-76
2024/04/26 03:52:37;;;;;;;5.88;3.88;;;11.40;63.40;13.20;99914.00;;;;5428874;26;20237;-76
2024/04/26 03:55:09;;;;;;;5.20;3.35;;;11.30;63.30;13.20;99916.00;;;;5421002;26;20228;-76
2024/04/26 03:57:38;;;;;;;4.95;3.42;;;11.40;63.40;13.20;99916.00;;;;5431137;26;20241;-76
2024/04/26 04:00:08;;;;;;;4.93;3.88;;;11.30;63.40;13.20;99922.00;;;;5421330;26;20233;-76
2024/04/26 04:02:36;;;;;;;4.68;3.53;;;11.30;63.40;13.20;99912.00;;;;5446683;26;20287;-76
2024/04/26 04:05:06;;;;;;;6.07;4.40;;;11.30;63.50;13.20;99925.00;;;;5431206;26;20229;-76
2024/04/26 04:07:34;;;;;;;4.55;3.47;;;11.30;63.50;13.20;99919.00;;;;5434811;26;20248;-77
2024/04/26 04:10:03;;;;;;;5.15;4.15;;;11.30;63.50;13.20;99915.00;;;;5424256;26;20244;-76
2024/04/26 04:12:34;;;;;;;5.97;4.28;;;11.30;63.50;13.20;99917.00;;;;5412497;26;20221;-76
2024/04/26 04:15:04;;;;;;;5.05;3.90;;;11.30;63.50;13.20;99921.00;;;;5412233;26;20346;-76
2024/04/26 04:17:32;;;;;;;5.40;4.10;;;11.30;63.50;13.20;99929.00;;;;5435437;26;20374;-76
2024/04/26 04:20:01;;;;;;;5.20;4.07;;;11.30;63.50;13.20;99921.00;;;;5410753;26;20357;-76
2024/04/26 04:22:29;;;;;;;6.60;5.13;;;11.30;63.50;13.20;99923.00;;;;5411378;26;20341;-76
2024/04/26 04:24:59;;;;;;;5.78;4.50;;;11.30;63.50;13.20;99923.00;;;;5420097;26;20345;-76
2024/04/26 04:27:27;;;;;;;6.60;4.70;;;11.30;63.50;13.10;99927.00;;;;5434534;26;20590;-77
2024/04/26 04:29:59;;;;;;;6.22;4.55;;;11.30;63.60;13.10;99935.00;;;;5424738;26;20228;-76
2024/04/26 04:32:27;;;;;;;6.68;5.07;;;11.30;63.70;13.10;99923.00;;;;5418010;26;20283;-76
2024/04/26 04:34:56;;;;;;;7.07;4.70;;;11.30;63.70;13.20;99927.00;;;;5429091;26;20241;-76
2024/04/26 04:37:25;;;;;;;5.93;4.53;;;11.30;63.70;13.20;99924.00;;;;5428983;26;20232;-77
2024/04/26 04:39:53;;;;;;;6.25;5.07;;;11.30;63.70;13.20;99925.00;;;;5418763;26;20232;-77
2024/04/26 04:42:22;;;;;;;6.57;5.22;;;11.30;64.40;13.20;99926.00;;;;5418100;26;20235;-76
2024/04/26 04:44:50;;;;;;;6.72;4.75;;;11.30;63.70;13.10;99924.00;;;;5438916;26;20406;-77
2024/04/26 04:47:22;;;;;;;6.45;4.45;;;11.30;63.70;13.10;99932.00;;;;5444106;26;20292;-77
2024/04/26 04:49:50;;;;;;;6.70;4.85;;;11.30;63.70;13.10;99931.00;;;;5445762;26;20239;-77
2024/04/26 04:52:19;;;;;;;7.70;5.20;;;11.30;63.80;13.10;99938.00;;;;5434920;26;20237;-77
2024/04/26 04:54:47;;;;;;;6.30;5.50;;;11.30;63.80;13.20;99926.00;;;;5438965;26;20304;-77
2024/04/26 04:57:16;;;;;;;9.10;5.35;;;11.30;63.80;13.20;99935.00;;;;5439508;26;20240;-77
2024/04/26 04:59:45;;;;;;;5.95;4.88;;;11.30;63.90;13.20;99937.00;;;;5431722;26;20344;-77
2024/04/26 05:02:14;;;;;;;7.70;5.85;;;11.30;63.90;13.20;99934.00;;;;5436755;26;21005;-77
2024/04/26 05:04:45;;;;;;;7.25;5.20;;;11.30;64.00;13.20;99931.00;;;;5438033;26;20271;-76
2024/04/26 05:07:14;;;;;;;8.30;5.93;;;11.30;64.00;13.20;99939.00;;;;5439683;26;20858;-77
2024/04/26 05:09:43;;;;;;;8.88;6.80;;;11.30;64.00;13.20;99939.00;;;;5441442;26;20228;-77
2024/04/26 05:12:13;;;;;;;8.60;6.13;;;11.30;64.00;13.30;99945.00;;;;5438989;26;20247;-76
2024/04/26 05:14:42;;;;;;;9.13;6.20;;;11.30;64.10;13.30;99945.00;;;;5435064;26;20228;-76
2024/04/26 05:17:11;;;;;;;8.48;6.00;;;11.40;64.20;13.30;99947.00;;;;5423714;26;20293;-77
2024/04/26 05:19:41;;;;;;;7.40;6.35;;;11.40;64.10;13.30;99953.00;;;;5433277;26;20292;-77
2024/04/26 05:22:12;;;;;;;8.77;6.68;;;11.40;64.20;13.30;99947.00;;;;5448201;26;20290;-76
2024/04/26 05:24:41;;;;;;;11.02;7.13;;;11.40;64.20;13.30;99953.00;;;;5432716;26;20302;-75
2024/04/26 05:27:15;;;;;;;12.68;7.07;;;11.40;64.30;13.30;99954.00;;;;5438928;26;20279;-76
2024/04/26 05:29:44;;;;;;;8.25;7.28;;;11.40;64.30;13.40;99960.00;;;;5447574;26;20255;-77
2024/04/26 05:32:13;;;;;;;9.43;7.20;;;11.50;64.30;13.40;99964.00;;;;5439986;26;20623;-76
2024/04/26 05:34:45;;;;;;;8.23;6.65;;;11.50;64.30;13.40;99970.00;;;;5442502;26;20235;-76
2024/04/26 05:37:17;;;;;;;9.45;7.32;;;11.50;64.30;13.40;99968.00;;;;5430179;26;20286;-75
2024/04/26 05:39:45;;;;;;;8.35;6.50;;;11.50;64.30;13.40;99969.00;;;;5435426;26;20367;-76
2024/04/26 05:42:14;;;;;;;9.57;7.35;;;11.60;64.40;13.50;99975.00;;;;5415251;26;20276;-76
2024/04/26 05:44:42;;;;;;;13.40;7.78;;;11.60;64.40;13.50;99968.00;;;;5422519;26;20245;-76
2024/04/26 05:47:11;;;;;;;9.05;7.22;;;11.60;64.40;13.50;99973.00;;;;5432428;26;20338;-75
2024/04/26 05:49:40;;;;;;;9.73;7.30;;;11.60;64.40;13.60;99979.00;;;;5434431;26;20321;-77
2024/04/26 05:52:09;;;;;;;12.85;7.60;;;11.60;64.40;13.60;99977.00;;;;5446352;26;20359;-76
2024/04/26 05:54:40;;;;;;;10.13;8.07;;;11.70;64.60;13.60;99983.00;;;;5449336;26;20322;-76
2024/04/26 05:57:10;;;;;;;9.20;7.07;;;11.70;64.60;13.70;99980.00;;;;5415697;26;20213;-76
2024/04/26 05:59:36;;;;;;;8.82;6.78;;;11.70;64.50;13.70;99992.00;;;;5443880;26;20244;-76
2024/04/26 06:02:04;;;;;;;8.00;6.30;;;11.80;64.50;13.70;99991.00;;;;5445708;26;20284;-76
2024/04/26 06:04:33;;;;;;;8.10;6.28;;;11.80;64.60;13.70;99990.00;;;;5445681;26;20232;-76
2024/04/26 06:07:02;;;;;;;8.98;6.28;;;11.80;64.50;13.80;99998.00;;;;5425246;26;20276;-75
2024/04/26 06:09:30;;;;;;;8.10;5.97;;;11.90;64.50;13.80;100000.00;;;;5437929;26;20295;-76
2024/04/26 06:12:02;;;;;;;7.18;5.95;;;11.90;64.50;13.80;100000.00;;;;5443512;26;20240;-76
2024/04/26 06:14:30;;;;;;;7.00;5.63;;;11.90;64.40;13.80;100000.00;;;;5439988;26;20233;-77
2024/04/26 06:16:59;;;;;;;8.27;6.43;;;11.90;64.30;13.80;100005.00;;;;5427095;26;20396;-76
2024/04/26 06:19:28;;;;;;;10.13;5.65;;;11.90;64.30;13.80;100009.00;;;;5434669;26;20228;-76
2024/04/26 06:21:56;;;;;;;7.45;6.03;;;11.90;64.30;13.80;100013.00;;;;5448094;26;20399;-76
2024/04/26 06:24:25;;;;;;;6.72;5.40;;;11.90;64.20;13.80;100015.00;;;;5445934;26;20774;-76
2024/04/26 06:26:53;;;;;;;6.85;5.85;;;12.00;64.20;13.80;100016.00;;;;5448235;26;20232;-76
2024/04/26 06:29:24;;;;;;;7.65;5.20;;;12.00;64.00;13.80;100014.00;;;;5446891;26;20317;-76
2024/04/26 06:31:57;;;;;;;7.10;5.00;;;11.90;64.60;13.80;100019.00;;;;5427160;26;20230;-76
2024/04/26 06:34:26;;;;;;;6.43;5.18;;;11.90;63.90;13.80;100026.00;;;;5436904;26;20232;-77
2024/04/26 06:36:54;;;;;;;7.32;5.10;;;12.00;64.10;13.90;100028.00;;;;5448377;26;20301;-76
2024/04/26 06:39:23;;;;;;;6.65;4.82;;;12.00;64.30;13.90;100025.00;;;;5435093;26;20322;-76
2024/04/26 06:41:51;;;;;;;7.47;5.15;;;12.00;64.50;13.90;100024.00;;;;5432349;26;20358;-76
2024/04/26 06:44:20;;;;;;;5.63;4.55;;;12.10;64.60;14.00;100035.00;;;;5420757;26;20241;-78
2024/04/26 06:46:51;;;;;;;8.38;4.82;;;12.10;64.80;14.00;100030.00;;;;5434993;26;20233;-76
2024/04/26 06:49:21;;;;;;;7.32;4.78;;;12.20;64.60;14.10;100037.00;;;;5413347;26;20415;-76
2024/04/26 06:51:49;;;;;;;7.07;4.90;;;12.20;64.40;14.10;100037.00;;;;5428464;26;20232;-77
2024/04/26 06:54:18;;;;;;;6.60;4.20;;;12.30;64.40;14.20;100035.00;;;;5431277;26;20229;-77
2024/04/26 06:56:47;;;;;;;5.35;4.10;;;12.30;64.40;14.20;100040.00;;;;5413063;26;20221;-77
2024/04/26 06:59:16;;;;;;;5.45;4.15;;;12.40;64.40;14.30;100052.00;;;;5440880;26;20228;-77
2024/04/26 07:01:46;;;;;;;4.45;4.00;;;12.40;64.30;14.30;100046.00;;;;5449084;26;20259;-77
2024/04/26 07:04:17;;;;;;;5.63;4.35;;;12.50;64.20;14.30;100055.00;;;;5449018;26;20216;-77
2024/04/26 07:06:46;;;;;;;5.90;4.28;;;12.50;64.10;14.30;100053.00;;;;5441242;26;21099;-77
2024/04/26 07:09:15;;;;;;;4.90;3.70;;;12.50;64.10;14.40;100053.00;;;;5413826;26;20309;-77
2024/04/26 07:11:45;;;;;;;5.03;3.85;;;12.60;63.90;14.40;100056.00;;;;5412674;26;20546;-77
2024/04/26 07:14:14;;;;;;;4.63;3.67;;;12.60;63.70;14.40;100059.00;;;;5446802;26;20224;-77
2024/04/26 07:16:43;;;;;;;5.28;3.70;;;12.60;63.70;14.40;100058.00;;;;5435822;26;20229;-77
2024/04/26 07:19:11;;;;;;;4.63;3.33;;;12.70;63.90;14.50;100066.00;;;;5416201;26;20233;-77
2024/04/26 07:21:43;;;;;;;5.03;3.30;;;12.70;63.70;14.50;100063.00;;;;5417916;26;20390;-78
2024/04/26 07:24:12;;;;;;;6.00;3.65;;;12.70;63.40;14.50;100062.00;;;;5413877;26;20233;-78
2024/04/26 07:26:41;;;;;;;4.32;3.00;;;12.80;63.30;14.60;100076.00;;;;5421306;26;20228;-76
2024/04/26 07:29:09;;;;;;;5.38;3.45;;;12.80;63.30;14.60;100065.00;;;;5447316;26;20358;-76
2024/04/26 07:31:41;;;;;;;4.85;4.03;;;12.90;63.50;14.70;100073.00;;;;5438869;26;20353;-76
2024/04/26 07:34:10;;;;;;;5.50;3.70;;;12.90;63.50;14.70;100073.00;;;;5416422;26;20221;-76
2024/04/26 07:36:45;;;;;;;4.40;3.13;;;13.00;63.40;14.70;100074.00;;;;5421184;26;20228;-76
2024/04/26 07:39:16;;;;;;;5.43;3.22;;;13.00;63.20;14.80;100068.00;;;;5447725;26;20295;-76
2024/04/26 07:41:45;;;;;;;5.07;2.88;;;13.10;62.90;14.80;100068.00;;;;5433291;26;20233;-76
2024/04/26 07:44:13;;;;;;;4.53;2.72;;;13.10;62.90;14.90;100067.00;;;;5412378;26;20229;-76
2024/04/26 07:46:42;;;;;;;3.00;1.92;;;13.20;62.70;14.90;100066.00;;;;5419603;26;20239;-76
2024/04/26 07:49:08;;;;;;;3.22;1.77;;;13.20;62.20;15.00;100067.00;;;;5431620;26;20340;-76
2024/04/26 07:51:37;;;;;;;1.80;1.30;;;13.20;62.00;15.00;100065.00;;;;5428998;26;20228;-76
2024/04/26 07:54:08;;;;;;;2.78;1.70;;;13.30;61.90;15.00;100069.00;;;;5447677;26;20232;-77
2024/04/26 07:56:36;;;;;;;2.75;1.50;;;13.30;61.70;15.10;100080.00;;;;5444966;26;20243;-77
2024/04/26 07:59:05;;;;;;;2.20;1.27;;;13.30;61.50;15.10;100078.00;;;;5431704;26;20240;-77
2024/04/26 08:01:34;;;;;;;4.93;1.63;;;13.40;61.50;15.20;100077.00;;;;5429995;26;20312;-77
2024/04/26 08:04:02;;;;;;;2.75;1.67;;;13.40;61.20;15.20;100083.00;;;;5436670;26;20894;-77
2024/04/26 08:06:33;;;;;;;3.63;1.45;;;13.50;61.20;15.30;100085.00;;;;5422514;26;20225;-77
2024/04/26 08:09:02;;;;;;;2.20;1.05;;;13.60;61.30;15.40;100091.00;;;;5411888;26;20276;-77
2024/04/26 08:11:33;;;;;;;3.80;1.33;;;13.60;60.90;15.50;100090.00;;;;5435409;26;20344;-77
2024/04/26 08:14:02;;;;;;;3.40;1.55;;;13.70;60.60;15.60;100090.00;;;;5445453;26;20327;-77
2024/04/26 08:16:30;;;;;;;1.08;0.95;;;13.80;60.60;15.70;100094.00;;;;5420648;26;20237;-77
2024/04/26 08:18:59;;;;;;;0.95;0.70;;;13.80;60.50;15.70;100094.00;;;;5425826;26;20773;-77
2024/04/26 08:21:27;;;;;;;1.90;0.73;;;13.90;60.20;15.80;100097.00;;;;5416790;26;20241;-77
2024/04/26 08:23:59;;;;;;;2.47;0.73;;;14.00;60.00;15.90;100097.00;;;;5443740;26;20563;-77
2024/04/26 08:26:27;;;;;;;1.77;0.68;;;14.10;59.90;16.00;100102.00;;;;5430645;26;20267;-77
2024/04/26 08:28:59;;;;;;;1.85;1.20;;;14.20;59.90;16.00;100095.00;;;;5447240;26;20216;-77
2024/04/26 08:31:27;;;;;;;2.42;1.02;;;14.20;59.70;16.10;100100.00;;;;5414439;26;20229;-77
2024/04/26 08:33:56;;;;;;;1.55;0.70;;;14.30;59.50;16.10;100102.00;;;;5442829;26;20348;-79
2024/04/26 08:36:25;;;;;;;1.42;0.68;;;14.40;59.00;16.10;100108.00;;;;5444001;26;20231;-77
2024/04/26 08:38:54;;;;;;;2.25;0.75;;;14.40;58.90;16.10;100115.00;;;;5410312;26;20674;-77
2024/04/26 08:41:26;;;;;;;0.90;0.60;;;14.40;58.70;16.20;100110.00;;;;5412073;26;20245;-77
2024/04/26 08:44:00;;;;;;;2.88;0.60;;;14.50;58.60;16.30;100106.00;;;;5411324;26;20221;-77
2024/04/26 08:46:30;;;;;;;2.45;1.33;;;14.50;58.70;16.30;100107.00;;;;5418685;26;20232;-77
2024/04/26 08:49:00;;;;;;;2.03;0.60;;;14.60;58.90;16.40;100121.00;;;;5443784;26;20231;-77
2024/04/26 08:51:32;;;;;;;1.23;0.50;;;14.60;58.80;16.50;100119.00;;;;5425159;26;20337;-77
2024/04/26 08:54:00;;;;;;;2.53;0.60;;;14.70;58.70;16.50;100120.00;;;;5410891;26;20218;-77
2024/04/26 08:56:32;;;;;;;2.28;0.70;;;14.80;58.40;16.60;100118.00;;;;5443873;26;20244;-78
2024/04/26 08:59:03;;;;;;;1.50;0.55;;;14.90;58.30;16.50;100114.00;;;;5426512;26;20262;-78
2024/04/26 09:01:32;;;;;;;3.58;0.70;;;14.90;58.00;16.60;100115.00;;;;5446924;26;20655;-77
2024/04/26 09:04:00;;;;;;;1.73;0.50;;;15.00;57.80;16.70;100124.00;;;;5416874;26;20310;-77
2024/04/26 09:06:33;;;;;;;3.08;0.60;;;15.00;57.50;16.70;100128.00;;;;5421023;26;20232;-78
2024/04/26 09:09:02;;;;;;;0.93;0.50;;;15.10;57.70;16.80;100133.00;;;;5411155;26;20281;-77
2024/04/26 09:11:31;;;;;;;1.65;0.88;;;15.10;57.60;16.90;100126.00;;;;5410629;26;20236;-77
2024/04/26 09:14:02;;;;;;;1.00;0.57;;;15.20;57.70;16.90;100123.00;;;;5439338;26;20231;-78
2024/04/26 09:16:32;;;;;;;2.63;0.65;;;15.20;57.60;17.10;100120.00;;;;5411084;26;20313;-78
2024/04/26 09:19:03;;;;;;;2.78;0.47;;;15.30;57.90;17.20;100129.00;;;;5410791;26;20297;-78
2024/04/26 09:21:32;;;;;;;2.58;0.50;;;15.40;58.00;17.30;100139.00;;;;5430807;26;21046;-78
2024/04/26 09:24:01;;;;;;;2.03;0.68;;;15.50;57.60;17.40;100130.00;;;;5431349;26;20343;-77
2024/04/26 09:26:30;;;;;;;1.45;0.43;;;15.60;57.30;17.50;100135.00;;;;5420063;26;20300;-78
2024/04/26 09:28:59;;;;;;;3.25;0.85;;;15.70;57.20;17.50;100143.00;;;;5418778;26;20778;-77
2024/04/26 09:31:30;;;;;;;1.05;0.43;;;15.80;57.10;17.60;100132.00;;;;5410960;26;20296;-77
2024/04/26 09:34:00;;;;;;;2.67;0.52;;;15.90;56.70;17.60;100144.00;;;;5443288;26;20344;-77
2024/04/26 09:36:29;;;;;;;2.47;0.60;;;15.90;56.60;17.70;100152.00;;;;5414269;26;20697;-78
2024/04/26 09:38:58;;;;;;;2.35;0.50;;;16.00;56.50;17.70;100148.00;;;;5409549;26;20271;-78
2024/04/26 09:41:31;;;;;;;1.02;0.40;;;16.00;56.10;17.60;100149.00;;;;5417546;26;20364;-77
2024/04/26 09:43:59;;;;;;;1.15;0.60;;;16.00;56.00;17.60;100156.00;;;;5443161;26;20284;-77
2024/04/26 09:46:36;;;;;;;2.25;0.32;;;16.00;55.60;17.50;100157.00;;;;5439087;26;20372;-76
2024/04/26 09:49:08;;;;;;;1.40;0.45;;;16.00;55.20;17.50;100152.00;;;;5443409;26;21398;-77
2024/04/26 09:51:39;;;;;;;1.35;0.50;;;16.00;55.40;17.60;100148.00;;;;5415951;26;20225;-77
2024/04/26 09:54:10;;;;;;;2.33;0.90;;;16.00;55.60;17.60;100161.00;;;;5434699;26;20276;-76
2024/04/26 09:56:40;;;;;;;1.83;0.60;;;16.00;55.80;17.70;100162.00;;;;5439913;26;20275;-76
2024/04/26 09:59:09;;;;;;;0.82;0.35;;;16.10;55.90;17.70;100161.00;;;;5410649;26;20280;-77
2024/04/26 10:01:42;;;;;;;2.33;0.60;;;16.10;55.80;17.80;100168.00;;;;5424097;26;20240;-77
2024/04/26 10:04:11;;;;;;;0.80;0.50;;;16.20;55.60;17.80;100172.00;;;;5432672;26;20559;-77
2024/04/26 10:06:43;;;;;;;3.33;0.60;;;16.20;55.50;17.80;100173.00;;;;5436688;26;20348;-77
2024/04/26 10:09:12;;;;;;;1.10;0.40;;;16.20;55.10;17.80;100175.00;;;;5429576;26;20245;-77
2024/04/26 10:11:51;;;;;;;2.50;1.00;;;16.20;55.30;17.80;100174.00;;;;5443641;26;20750;-77
2024/04/26 10:14:32;;;;;;;1.83;0.50;;;16.20;55.10;17.90;100174.00;;;;5431820;26;20233;-77
2024/04/26 10:17:14;;;;;;;1.42;0.50;;;16.30;55.10;17.90;100170.00;;;;5436010;26;20327;-76
2024/04/26 10:19:44;;;;;;;2.33;0.60;;;16.30;55.00;18.10;100186.00;;;;5421019;26;20249;-77
2024/04/26 10:22:14;;;;;;;0.80;0.30;;;16.40;55.30;18.10;100180.00;;;;5442712;26;20232;-77
2024/04/26 10:24:47;;;;;;;3.45;0.50;;;16.50;55.30;18.20;100183.00;;;;5431782;26;20248;-76
2024/04/26 10:27:28;;;;;;;0.90;0.70;;;16.50;55.00;18.10;100176.00;;;;5431657;26;20726;-76
2024/04/26 10:29:57;;;;;;;2.30;0.30;;;16.60;54.80;18.20;100178.00;;;;5437725;26;20255;-76
2024/04/26 10:32:30;;;;;;;1.40;0.60;;;16.70;54.40;18.30;100179.00;;;;5420364;26;20228;-76
2024/04/26 10:34:58;;;;;;;1.70;0.52;;;16.70;54.50;18.40;100184.00;;;;5441046;26;20337;-76
2024/04/26 10:37:27;;;;;;;0.85;0.55;;;16.80;54.80;18.50;100182.00;;;;5449396;26;20336;-76
2024/04/26 10:40:06;;;;;;;0.88;0.40;;;16.90;54.70;18.60;100186.00;;;;5421522;26;20237;-76
2024/04/26 10:42:35;;;;;;;1.05;0.50;;;17.00;54.80;18.70;100193.00;;;;5438128;26;20278;-76
2024/04/26 10:45:03;;;;;;;0.93;0.40;;;17.10;54.60;18.70;100194.00;;;;5425729;26;20240;-77
2024/04/26 10:47:35;;;;;;;1.98;0.60;;;17.10;54.10;18.70;100189.00;;;;5439747;26;20368;-77
2024/04/26 10:50:03;;;;;;;6.72;0.70;;;17.20;53.40;18.80;100195.00;;;;5436744;26;20255;-77
2024/04/26 10:52:32;;;;;;;2.20;0.50;;;17.20;53.30;18.80;100198.00;;;;5437783;26;20241;-77
2024/04/26 10:55:01;;;;;;;0.70;0.35;;;17.20;53.20;18.80;100199.00;;;;5411664;26;20218;-77
2024/04/26 10:57:31;;;;;;;1.40;0.47;;;17.20;53.20;18.80;100205.00;;;;5422170;26;20622;-77
2024/04/26 11:00:00;;;;;;;2.40;0.65;;;17.20;53.20;18.80;100200.00;;;;5421684;26;20345;-77